IRA956T GMMN-GMML
Flight info
| Callsign | IRA956T |
|---|---|
| Flight time | 1h 23m |
| Altitude | 33000 |
| Route | NIKZO UR975 ADM UA600 SOLNA DCT LAY |
| Aircraft | A320/M-SDE3FGHIRWY/LB1 |
Departure
| Time | 2026-04-23 14:50 |
|---|---|
| Airport | Mohammed V International Airport (GMMN) |
Arrival
| Time | 2026-04-23 16:13 |
|---|---|
| Airport | Laayoune Hassan I International Airport (GMML) |
| Time | Latitude | Longitude | Altitude | Speed | Heading |
|---|---|---|---|---|---|
| 2026-04-23 14:35 | 33.35787 | -7.57845 | 657 ft | 0 kts | 209° |
| 2026-04-23 14:46 | 33.35764 | -7.57859 | 654 ft | 10 kts | 200° |
| 2026-04-23 14:46 | 33.35649 | -7.57886 | 653 ft | 20 kts | 201° |
| 2026-04-23 14:46 | 33.35576 | -7.58006 | 652 ft | 18 kts | 202° |
| 2026-04-23 14:47 | 33.35457 | -7.57983 | 652 ft | 18 kts | 163° |
| 2026-04-23 14:47 | 33.35331 | -7.57946 | 652 ft | 18 kts | 191° |
| 2026-04-23 14:47 | 33.35255 | -7.58042 | 654 ft | 16 kts | 252° |
| 2026-04-23 14:47 | 33.35238 | -7.58109 | 654 ft | 4 kts | 253° |
| 2026-04-23 14:48 | 33.35231 | -7.58136 | 653 ft | 2 kts | 253° |
| 2026-04-23 14:48 | 33.35229 | -7.58144 | 653 ft | 0 kts | 253° |
| 2026-04-23 14:48 | 33.35220 | -7.58179 | 654 ft | 10 kts | 253° |
| 2026-04-23 14:48 | 33.35256 | -7.58279 | 654 ft | 18 kts | 350° |
| 2026-04-23 14:49 | 33.35355 | -7.58307 | 652 ft | 16 kts | 342° |
| 2026-04-23 14:49 | 33.35620 | -7.58403 | 646 ft | 73 kts | 343° |
| 2026-04-23 14:49 | 33.36312 | -7.58650 | 650 ft | 131 kts | 343° |
| 2026-04-23 14:49 | 33.37342 | -7.59019 | 667 ft | 175 kts | 343° |
| 2026-04-23 14:50 | 33.38482 | -7.59414 | 1305 ft | 170 kts | 344° |
| 2026-04-23 14:50 | 33.39642 | -7.59952 | 1714 ft | 188 kts | 331° |
| 2026-04-23 14:50 | 33.40860 | -7.60714 | 2072 ft | 209 kts | 339° |
| 2026-04-23 14:50 | 33.42265 | -7.61450 | 2470 ft | 230 kts | 327° |
| 2026-04-23 14:51 | 33.43446 | -7.62759 | 3162 ft | 236 kts | 303° |
| 2026-04-23 14:51 | 33.44075 | -7.64565 | 3932 ft | 238 kts | 279° |
| 2026-04-23 14:51 | 33.44071 | -7.66542 | 4715 ft | 240 kts | 258° |
| 2026-04-23 14:51 | 33.43465 | -7.68407 | 5487 ft | 243 kts | 237° |
| 2026-04-23 14:52 | 33.42360 | -7.69906 | 6243 ft | 246 kts | 220° |
| 2026-04-23 14:52 | 33.41078 | -7.71270 | 7012 ft | 248 kts | 224° |
| 2026-04-23 14:52 | 33.39874 | -7.72766 | 7769 ft | 251 kts | 228° |
| 2026-04-23 14:52 | 33.38759 | -7.74385 | 8520 ft | 254 kts | 233° |
| 2026-04-23 14:53 | 33.37742 | -7.76123 | 9258 ft | 256 kts | 237° |
| 2026-04-23 14:53 | 33.36834 | -7.77973 | 9979 ft | 259 kts | 242° |
| 2026-04-23 14:53 | 33.36046 | -7.79924 | 10681 ft | 262 kts | 246° |
| 2026-04-23 14:53 | 33.35374 | -7.81963 | 11374 ft | 265 kts | 248° |
| 2026-04-23 14:54 | 33.34468 | -7.83883 | 12026 ft | 268 kts | 232° |
| 2026-04-23 14:54 | 33.33111 | -7.85529 | 12274 ft | 290 kts | 219° |
| 2026-04-23 14:54 | 33.31492 | -7.87120 | 12431 ft | 313 kts | 219° |
| 2026-04-23 14:54 | 33.29757 | -7.88829 | 12678 ft | 331 kts | 219° |
| 2026-04-23 14:55 | 33.27966 | -7.90596 | 13238 ft | 337 kts | 219° |
| 2026-04-23 14:55 | 33.26153 | -7.92390 | 13867 ft | 340 kts | 219° |
| 2026-04-23 14:55 | 33.24326 | -7.94203 | 14488 ft | 343 kts | 220° |
| 2026-04-23 14:55 | 33.22478 | -7.96038 | 15096 ft | 347 kts | 220° |
| 2026-04-23 14:56 | 33.20619 | -7.97887 | 15690 ft | 350 kts | 220° |
| 2026-04-23 14:56 | 33.18740 | -7.99751 | 16270 ft | 353 kts | 219° |
| 2026-04-23 14:56 | 33.16844 | -8.01631 | 16838 ft | 356 kts | 220° |
| 2026-04-23 14:56 | 33.14848 | -8.03386 | 17383 ft | 359 kts | 211° |
| 2026-04-23 14:57 | 33.12585 | -8.04666 | 17920 ft | 362 kts | 199° |
| 2026-04-23 14:57 | 33.10137 | -8.05389 | 18451 ft | 364 kts | 187° |
| 2026-04-23 14:57 | 33.07600 | -8.05603 | 18966 ft | 367 kts | 182° |
| 2026-04-23 14:57 | 33.05042 | -8.05752 | 19511 ft | 370 kts | 183° |
| 2026-04-23 14:58 | 33.02463 | -8.05910 | 20014 ft | 372 kts | 183° |
| 2026-04-23 14:58 | 32.99865 | -8.06076 | 20522 ft | 375 kts | 183° |
| 2026-04-23 14:58 | 32.97251 | -8.06247 | 21013 ft | 378 kts | 183° |
| 2026-04-23 14:58 | 32.94622 | -8.06476 | 21480 ft | 381 kts | 188° |
| 2026-04-23 14:59 | 32.92028 | -8.07160 | 21953 ft | 384 kts | 198° |
| 2026-04-23 14:59 | 32.89522 | -8.08290 | 22414 ft | 386 kts | 201° |
| 2026-04-23 14:59 | 32.87018 | -8.09472 | 22863 ft | 389 kts | 201° |
| 2026-04-23 14:59 | 32.84492 | -8.10662 | 23301 ft | 392 kts | 201° |
| 2026-04-23 15:00 | 32.81947 | -8.11858 | 23727 ft | 394 kts | 201° |
| 2026-04-23 15:00 | 32.79388 | -8.13053 | 24135 ft | 397 kts | 201° |
| 2026-04-23 15:00 | 32.76814 | -8.14253 | 24533 ft | 399 kts | 201° |
| 2026-04-23 15:00 | 32.74219 | -8.15462 | 24917 ft | 401 kts | 201° |
| 2026-04-23 15:01 | 32.71612 | -8.16674 | 25290 ft | 404 kts | 201° |
| 2026-04-23 15:01 | 32.68992 | -8.17889 | 25646 ft | 406 kts | 201° |
| 2026-04-23 15:01 | 32.66353 | -8.19111 | 25994 ft | 408 kts | 201° |
| 2026-04-23 15:01 | 32.63702 | -8.20340 | 26334 ft | 410 kts | 201° |
| 2026-04-23 15:02 | 32.61939 | -8.21160 | 26551 ft | 411 kts | 201° |
| 2026-04-23 15:02 | 32.58363 | -8.22826 | 26985 ft | 414 kts | 201° |
| 2026-04-23 15:02 | 32.55673 | -8.24076 | 27300 ft | 416 kts | 201° |
| 2026-04-23 15:02 | 32.52974 | -8.25332 | 27609 ft | 418 kts | 201° |
| 2026-04-23 15:03 | 32.50255 | -8.26598 | 27917 ft | 420 kts | 201° |
| 2026-04-23 15:03 | 32.47526 | -8.27868 | 28203 ft | 422 kts | 201° |
| 2026-04-23 15:03 | 32.44783 | -8.29144 | 28485 ft | 424 kts | 201° |
| 2026-04-23 15:03 | 32.42027 | -8.30425 | 28757 ft | 427 kts | 201° |
| 2026-04-23 15:04 | 32.39260 | -8.31708 | 29023 ft | 429 kts | 201° |
| 2026-04-23 15:04 | 32.36476 | -8.32990 | 29297 ft | 430 kts | 201° |
| 2026-04-23 15:04 | 32.33681 | -8.34277 | 29551 ft | 432 kts | 201° |
| 2026-04-23 15:04 | 32.30877 | -8.35569 | 29814 ft | 433 kts | 201° |
| 2026-04-23 15:05 | 32.28068 | -8.36867 | 30067 ft | 435 kts | 201° |
| 2026-04-23 15:05 | 32.25250 | -8.38170 | 30303 ft | 436 kts | 201° |
| 2026-04-23 15:05 | 32.22416 | -8.39476 | 30529 ft | 438 kts | 201° |
| 2026-04-23 15:05 | 32.19573 | -8.40784 | 30741 ft | 439 kts | 201° |
| 2026-04-23 15:06 | 32.16718 | -8.42095 | 30934 ft | 441 kts | 201° |
| 2026-04-23 15:06 | 32.13853 | -8.43412 | 31179 ft | 442 kts | 201° |
| 2026-04-23 15:06 | 32.10993 | -8.44729 | 31471 ft | 441 kts | 201° |
| 2026-04-23 15:06 | 32.08154 | -8.46078 | 31759 ft | 440 kts | 203° |
| 2026-04-23 15:07 | 32.05361 | -8.47558 | 32043 ft | 439 kts | 205° |
| 2026-04-23 15:07 | 32.02619 | -8.49135 | 32322 ft | 439 kts | 206° |
| 2026-04-23 15:07 | 31.99900 | -8.50760 | 32596 ft | 438 kts | 207° |
| 2026-04-23 15:07 | 31.97187 | -8.52386 | 32866 ft | 437 kts | 207° |
| 2026-04-23 15:08 | 31.94468 | -8.53993 | 32976 ft | 435 kts | 206° |
| 2026-04-23 15:08 | 31.91785 | -8.55549 | 33011 ft | 426 kts | 206° |
| 2026-04-23 15:09 | 31.83834 | -8.60063 | 33009 ft | 421 kts | 206° |
| 2026-04-23 15:09 | 31.79446 | -8.62543 | 33009 ft | 421 kts | 206° |
| 2026-04-23 15:10 | 31.74170 | -8.65534 | 33008 ft | 421 kts | 206° |
| 2026-04-23 15:10 | 31.68901 | -8.68525 | 33009 ft | 421 kts | 206° |
| 2026-04-23 15:11 | 31.63624 | -8.71507 | 33008 ft | 421 kts | 206° |
| 2026-04-23 15:11 | 31.58343 | -8.74485 | 33008 ft | 421 kts | 206° |
| 2026-04-23 15:12 | 31.53068 | -8.77465 | 33007 ft | 421 kts | 206° |
| 2026-04-23 15:12 | 31.47732 | -8.80307 | 33004 ft | 421 kts | 203° |
| 2026-04-23 15:13 | 31.42324 | -8.82952 | 33002 ft | 421 kts | 202° |
| 2026-04-23 15:13 | 31.36905 | -8.85586 | 33000 ft | 422 kts | 202° |
| 2026-04-23 15:14 | 31.31498 | -8.88267 | 33000 ft | 422 kts | 203° |
| 2026-04-23 15:14 | 31.26098 | -8.90975 | 32999 ft | 422 kts | 203° |
| 2026-04-23 15:15 | 31.20693 | -8.93674 | 32996 ft | 423 kts | 203° |
| 2026-04-23 15:15 | 31.15273 | -8.96372 | 32983 ft | 424 kts | 203° |
| 2026-04-23 15:16 | 31.09838 | -8.99068 | 32986 ft | 425 kts | 203° |
| 2026-04-23 15:16 | 31.04387 | -9.01768 | 32995 ft | 426 kts | 203° |
| 2026-04-23 15:17 | 30.98933 | -9.04467 | 32996 ft | 426 kts | 203° |
| 2026-04-23 15:17 | 30.93476 | -9.07174 | 32999 ft | 426 kts | 203° |
| 2026-04-23 15:18 | 30.88021 | -9.09875 | 33003 ft | 426 kts | 203° |
| 2026-04-23 15:18 | 30.82567 | -9.12569 | 33010 ft | 425 kts | 203° |
| 2026-04-23 15:19 | 30.77126 | -9.15264 | 33014 ft | 425 kts | 203° |
| 2026-04-23 15:19 | 30.71693 | -9.17953 | 33013 ft | 424 kts | 203° |
| 2026-04-23 15:20 | 30.66277 | -9.20668 | 33014 ft | 424 kts | 204° |
| 2026-04-23 15:20 | 30.60904 | -9.23479 | 33012 ft | 423 kts | 204° |
| 2026-04-23 15:21 | 30.55538 | -9.26298 | 33014 ft | 423 kts | 204° |
| 2026-04-23 15:21 | 30.50175 | -9.29082 | 33023 ft | 422 kts | 204° |
| 2026-04-23 15:22 | 30.44824 | -9.31842 | 33022 ft | 420 kts | 204° |
| 2026-04-23 15:22 | 30.39479 | -9.34590 | 33023 ft | 420 kts | 204° |
| 2026-04-23 15:23 | 30.34182 | -9.37408 | 33019 ft | 419 kts | 210° |
| 2026-04-23 15:23 | 30.29641 | -9.41568 | 33012 ft | 418 kts | 227° |
| 2026-04-23 15:24 | 30.25715 | -9.46528 | 33004 ft | 418 kts | 227° |
| 2026-04-23 15:24 | 30.21773 | -9.51464 | 32999 ft | 418 kts | 227° |
| 2026-04-23 15:25 | 30.17831 | -9.56393 | 32997 ft | 417 kts | 227° |
| 2026-04-23 15:25 | 30.13895 | -9.61325 | 32994 ft | 417 kts | 227° |
| 2026-04-23 15:26 | 30.09985 | -9.66230 | 32994 ft | 418 kts | 227° |
| 2026-04-23 15:26 | 30.06025 | -9.71193 | 32996 ft | 418 kts | 227° |
| 2026-04-23 15:27 | 30.02091 | -9.76127 | 32998 ft | 418 kts | 227° |
| 2026-04-23 15:27 | 29.98201 | -9.81103 | 32999 ft | 418 kts | 228° |
| 2026-04-23 15:28 | 29.94326 | -9.86095 | 32999 ft | 418 kts | 228° |
| 2026-04-23 15:28 | 29.90442 | -9.91073 | 32999 ft | 417 kts | 228° |
| 2026-04-23 15:29 | 29.86546 | -9.96036 | 32998 ft | 417 kts | 228° |
| 2026-04-23 15:29 | 29.82653 | -10.00990 | 32997 ft | 417 kts | 228° |
| 2026-04-23 15:30 | 29.78741 | -10.05919 | 32996 ft | 417 kts | 227° |
| 2026-04-23 15:30 | 29.74779 | -10.10794 | 32995 ft | 417 kts | 227° |
| 2026-04-23 15:31 | 29.70828 | -10.15626 | 32999 ft | 417 kts | 227° |
| 2026-04-23 15:31 | 29.66861 | -10.20498 | 32998 ft | 417 kts | 227° |
| 2026-04-23 15:32 | 29.62901 | -10.25378 | 32998 ft | 417 kts | 227° |
| 2026-04-23 15:32 | 29.58936 | -10.30248 | 32998 ft | 417 kts | 227° |
| 2026-04-23 15:33 | 29.54963 | -10.35106 | 32999 ft | 417 kts | 227° |
| 2026-04-23 15:33 | 29.50998 | -10.39969 | 32998 ft | 417 kts | 227° |
| 2026-04-23 15:34 | 29.47030 | -10.44829 | 33001 ft | 417 kts | 227° |
| 2026-04-23 15:34 | 29.43054 | -10.49684 | 33001 ft | 417 kts | 227° |
| 2026-04-23 15:35 | 29.39074 | -10.54539 | 33002 ft | 417 kts | 226° |
| 2026-04-23 15:35 | 29.35098 | -10.59383 | 33001 ft | 417 kts | 227° |
| 2026-04-23 15:36 | 29.31122 | -10.64234 | 33002 ft | 417 kts | 227° |
| 2026-04-23 15:36 | 29.27145 | -10.69073 | 33001 ft | 417 kts | 226° |
| 2026-04-23 15:37 | 29.23135 | -10.73935 | 33001 ft | 417 kts | 226° |
| 2026-04-23 15:37 | 29.19821 | -10.77950 | 33002 ft | 417 kts | 226° |
| 2026-04-23 15:38 | 29.15170 | -10.83587 | 32999 ft | 417 kts | 226° |
| 2026-04-23 15:38 | 29.11182 | -10.88407 | 32999 ft | 417 kts | 226° |
| 2026-04-23 15:39 | 29.07220 | -10.93193 | 33002 ft | 417 kts | 226° |
| 2026-04-23 15:39 | 29.03234 | -10.98018 | 33002 ft | 417 kts | 226° |
| 2026-04-23 15:40 | 28.99240 | -11.02829 | 33003 ft | 417 kts | 226° |
| 2026-04-23 15:40 | 28.95248 | -11.07633 | 33002 ft | 417 kts | 226° |
| 2026-04-23 15:41 | 28.91263 | -11.12442 | 33000 ft | 417 kts | 226° |
| 2026-04-23 15:41 | 28.87276 | -11.17239 | 32998 ft | 417 kts | 226° |
| 2026-04-23 15:42 | 28.83279 | -11.22033 | 32998 ft | 417 kts | 226° |
| 2026-04-23 15:42 | 28.79281 | -11.26816 | 32999 ft | 417 kts | 226° |
| 2026-04-23 15:43 | 28.75280 | -11.31605 | 32999 ft | 417 kts | 226° |
| 2026-04-23 15:43 | 28.71287 | -11.36389 | 32998 ft | 417 kts | 226° |
| 2026-04-23 15:44 | 28.67284 | -11.41167 | 32999 ft | 417 kts | 226° |
| 2026-04-23 15:44 | 28.63282 | -11.45941 | 33000 ft | 417 kts | 226° |
| 2026-04-23 15:45 | 28.59274 | -11.50712 | 32999 ft | 417 kts | 226° |
| 2026-04-23 15:45 | 28.55270 | -11.55475 | 33000 ft | 417 kts | 226° |
| 2026-04-23 15:46 | 28.51262 | -11.60239 | 32999 ft | 417 kts | 226° |
| 2026-04-23 15:46 | 28.47252 | -11.64998 | 32999 ft | 417 kts | 226° |
| 2026-04-23 15:47 | 28.43244 | -11.69747 | 32998 ft | 416 kts | 226° |
| 2026-04-23 15:47 | 28.39237 | -11.74498 | 32997 ft | 416 kts | 226° |
| 2026-04-23 15:48 | 28.35230 | -11.79244 | 32996 ft | 416 kts | 226° |
| 2026-04-23 15:48 | 28.31217 | -11.83980 | 32997 ft | 416 kts | 226° |
| 2026-04-23 15:49 | 28.27200 | -11.88714 | 32995 ft | 416 kts | 226° |
| 2026-04-23 15:49 | 28.23185 | -11.93446 | 32995 ft | 416 kts | 226° |
| 2026-04-23 15:50 | 28.19172 | -11.98176 | 32995 ft | 416 kts | 226° |
| 2026-04-23 15:50 | 28.15154 | -12.02907 | 32998 ft | 417 kts | 226° |
| 2026-04-23 15:51 | 28.11130 | -12.07636 | 32999 ft | 416 kts | 226° |
| 2026-04-23 15:51 | 28.07789 | -12.11559 | 33000 ft | 416 kts | 226° |
| 2026-04-23 15:52 | 28.03764 | -12.16284 | 33003 ft | 419 kts | 226° |
| 2026-04-23 15:52 | 27.98970 | -12.21905 | 33010 ft | 432 kts | 226° |
| 2026-04-23 15:53 | 27.94789 | -12.26802 | 32945 ft | 431 kts | 226° |
| 2026-04-23 15:53 | 27.93390 | -12.28435 | 32770 ft | 425 kts | 226° |
| 2026-04-23 15:53 | 27.91358 | -12.30803 | 32520 ft | 414 kts | 226° |
| 2026-04-23 15:53 | 27.89374 | -12.33109 | 32267 ft | 405 kts | 226° |
| 2026-04-23 15:54 | 27.87427 | -12.35375 | 32018 ft | 400 kts | 226° |
| 2026-04-23 15:54 | 27.85494 | -12.37626 | 31662 ft | 398 kts | 226° |
| 2026-04-23 15:54 | 27.83574 | -12.39866 | 31167 ft | 396 kts | 226° |
| 2026-04-23 15:54 | 27.81661 | -12.42098 | 30665 ft | 394 kts | 226° |
| 2026-04-23 15:55 | 27.79756 | -12.44318 | 30165 ft | 393 kts | 226° |
| 2026-04-23 15:55 | 27.77859 | -12.46528 | 29664 ft | 391 kts | 226° |
| 2026-04-23 15:55 | 27.75972 | -12.48726 | 29162 ft | 389 kts | 226° |
| 2026-04-23 15:55 | 27.74091 | -12.50916 | 28663 ft | 388 kts | 226° |
| 2026-04-23 15:56 | 27.72215 | -12.53096 | 28148 ft | 386 kts | 226° |
| 2026-04-23 15:56 | 27.70345 | -12.55264 | 27662 ft | 385 kts | 226° |
| 2026-04-23 15:56 | 27.68403 | -12.57321 | 27167 ft | 383 kts | 217° |
| 2026-04-23 15:56 | 27.66133 | -12.58873 | 26660 ft | 381 kts | 204° |
| 2026-04-23 15:57 | 27.63628 | -12.59817 | 26158 ft | 379 kts | 191° |
| 2026-04-23 15:57 | 27.61018 | -12.60203 | 25659 ft | 378 kts | 186° |
| 2026-04-23 15:57 | 27.58406 | -12.60507 | 25159 ft | 377 kts | 186° |
| 2026-04-23 15:57 | 27.55802 | -12.60815 | 24657 ft | 375 kts | 186° |
| 2026-04-23 15:58 | 27.53209 | -12.61123 | 24158 ft | 374 kts | 186° |
| 2026-04-23 15:58 | 27.50627 | -12.61430 | 23657 ft | 373 kts | 186° |
| 2026-04-23 15:58 | 27.48054 | -12.61736 | 23153 ft | 371 kts | 186° |
| 2026-04-23 15:58 | 27.45491 | -12.62042 | 22661 ft | 370 kts | 186° |
| 2026-04-23 15:59 | 27.42935 | -12.62347 | 22155 ft | 369 kts | 186° |
| 2026-04-23 15:59 | 27.40383 | -12.62650 | 21655 ft | 368 kts | 186° |
| 2026-04-23 15:59 | 27.37839 | -12.62950 | 21151 ft | 367 kts | 186° |
| 2026-04-23 15:59 | 27.35300 | -12.63249 | 20649 ft | 366 kts | 186° |
| 2026-04-23 16:00 | 27.32773 | -12.63546 | 20152 ft | 365 kts | 186° |
| 2026-04-23 16:00 | 27.30249 | -12.63844 | 19648 ft | 364 kts | 186° |
| 2026-04-23 16:00 | 27.27735 | -12.64142 | 19150 ft | 363 kts | 186° |
| 2026-04-23 16:00 | 27.25224 | -12.64439 | 18648 ft | 362 kts | 186° |
| 2026-04-23 16:01 | 27.22723 | -12.64734 | 18149 ft | 361 kts | 186° |
| 2026-04-23 16:01 | 27.20232 | -12.65026 | 17646 ft | 360 kts | 186° |
| 2026-04-23 16:01 | 27.17746 | -12.65319 | 17149 ft | 359 kts | 186° |
| 2026-04-23 16:01 | 27.15269 | -12.65611 | 16643 ft | 357 kts | 186° |
| 2026-04-23 16:02 | 27.12798 | -12.65901 | 16143 ft | 356 kts | 186° |
| 2026-04-23 16:02 | 27.10335 | -12.66190 | 15641 ft | 356 kts | 186° |
| 2026-04-23 16:02 | 27.07878 | -12.66475 | 15134 ft | 354 kts | 186° |
| 2026-04-23 16:02 | 27.05449 | -12.66758 | 14627 ft | 344 kts | 186° |
| 2026-04-23 16:03 | 27.03171 | -12.67322 | 14124 ft | 330 kts | 204° |
| 2026-04-23 16:03 | 27.01344 | -12.68775 | 13626 ft | 318 kts | 229° |
| 2026-04-23 16:03 | 27.00251 | -12.70860 | 13126 ft | 307 kts | 253° |
| 2026-04-23 16:03 | 26.99981 | -12.73187 | 12628 ft | 298 kts | 271° |
| 2026-04-23 16:04 | 27.00023 | -12.75481 | 12127 ft | 291 kts | 271° |
| 2026-04-23 16:04 | 27.00070 | -12.77719 | 11698 ft | 282 kts | 271° |
| 2026-04-23 16:04 | 27.00116 | -12.79896 | 11302 ft | 277 kts | 271° |
| 2026-04-23 16:04 | 27.00159 | -12.82020 | 10906 ft | 275 kts | 271° |
| 2026-04-23 16:05 | 27.00187 | -12.83463 | 10635 ft | 274 kts | 271° |
| 2026-04-23 16:05 | 27.00239 | -12.86295 | 10108 ft | 275 kts | 271° |
| 2026-04-23 16:05 | 27.00275 | -12.88442 | 9707 ft | 276 kts | 271° |
| 2026-04-23 16:05 | 27.00309 | -12.90590 | 9307 ft | 276 kts | 271° |
| 2026-04-23 16:06 | 27.00343 | -12.92745 | 8906 ft | 276 kts | 271° |
| 2026-04-23 16:06 | 27.00378 | -12.94899 | 8505 ft | 276 kts | 271° |
| 2026-04-23 16:06 | 27.00413 | -12.97049 | 8101 ft | 276 kts | 271° |
| 2026-04-23 16:06 | 27.00448 | -12.99197 | 7703 ft | 275 kts | 271° |
| 2026-04-23 16:07 | 27.00483 | -13.01336 | 7302 ft | 274 kts | 271° |
| 2026-04-23 16:07 | 27.00517 | -13.03470 | 6902 ft | 273 kts | 271° |
| 2026-04-23 16:07 | 27.00551 | -13.05595 | 6501 ft | 272 kts | 271° |
| 2026-04-23 16:07 | 27.00584 | -13.07711 | 6090 ft | 271 kts | 271° |
| 2026-04-23 16:08 | 27.00616 | -13.09815 | 5699 ft | 269 kts | 271° |
| 2026-04-23 16:08 | 27.00649 | -13.11907 | 5297 ft | 268 kts | 271° |
| 2026-04-23 16:08 | 27.00682 | -13.13987 | 4896 ft | 266 kts | 271° |
| 2026-04-23 16:08 | 27.00716 | -13.16058 | 4475 ft | 265 kts | 271° |
| 2026-04-23 16:09 | 27.00749 | -13.18125 | 4049 ft | 264 kts | 271° |
| 2026-04-23 16:09 | 27.00780 | -13.20160 | 3615 ft | 256 kts | 271° |
| 2026-04-23 16:09 | 27.00807 | -13.22111 | 3189 ft | 245 kts | 271° |
| 2026-04-23 16:09 | 27.00843 | -13.23986 | 2763 ft | 236 kts | 275° |
| 2026-04-23 16:10 | 27.01388 | -13.25636 | 2415 ft | 222 kts | 312° |
| 2026-04-23 16:10 | 27.02605 | -13.26523 | 2276 ft | 201 kts | 345° |
| 2026-04-23 16:10 | 27.03933 | -13.26548 | 2060 ft | 186 kts | 14° |
| 2026-04-23 16:10 | 27.05128 | -13.26156 | 1837 ft | 172 kts | 17° |
| 2026-04-23 16:11 | 27.06234 | -13.25789 | 1630 ft | 161 kts | 17° |
| 2026-04-23 16:11 | 27.07290 | -13.25438 | 1425 ft | 155 kts | 17° |
| 2026-04-23 16:11 | 27.08304 | -13.25102 | 1230 ft | 149 kts | 17° |
| 2026-04-23 16:11 | 27.09284 | -13.24778 | 1030 ft | 145 kts | 17° |
| 2026-04-23 16:12 | 27.10248 | -13.24459 | 829 ft | 144 kts | 17° |
| 2026-04-23 16:12 | 27.11206 | -13.24141 | 646 ft | 143 kts | 17° |
| 2026-04-23 16:12 | 27.12159 | -13.23826 | 457 ft | 143 kts | 17° |
| 2026-04-23 16:12 | 27.13109 | -13.23511 | 264 ft | 142 kts | 17° |
| 2026-04-23 16:13 | 27.14026 | -13.23207 | 227 ft | 126 kts | 17° |
| 2026-04-23 16:13 | 27.14944 | -13.22899 | 227 ft | 38 kts | 17° |
| 2026-04-23 16:13 | 27.15170 | -13.22824 | 226 ft | 34 kts | 17° |
| 2026-04-23 16:14 | 27.15333 | -13.22743 | 225 ft | 20 kts | 68° |
| 2026-04-23 16:14 | 27.15359 | -13.22622 | 225 ft | 13 kts | 81° |
| 2026-04-23 16:14 | 27.15366 | -13.22522 | 224 ft | 11 kts | 119° |
| 2026-04-23 16:14 | 27.15380 | -13.22475 | 224 ft | 6 kts | 34° |
| 2026-04-23 16:15 | 27.15387 | -13.22470 | 224 ft | 0 kts | 34° |